Strona główna
METAR-TAF:

METAR-TAF

Lotnisko :

Baza lotnicza

Tulln an der Donau, Austria

Szerokość geograficzna: 48-19N, Długość geograficzna: 016-07E, wysokość: 175 m

METAR: brakujący

czas: 09:58 (07:58 UTC)

Prognoza

Raport powstał 2 godziny i 43 minut temu, godzina 05:15 UTC
Prognoza ważna od 23 godzina 06 UTC do 23 godzina 15 UTC
Wiatr 3 kt z kierunków zmiennych
Widzialność 10 km lub więcej
Mało chmury na wysokości 1500 ft
Przerywane chmury na wysokości 2500 ft
Przejściowo
od 23 godzina 06 UTC do 23 godzina 07 UTC
Widzialność: 1500 m
Mało chmury na wysokości 500 ft
Zachmurzenie całkowite na wysokości 1500 ft
słaby deszcz, śnieg
Przejściowo
od 23 godzina 07 UTC do 23 godzina 15 UTC
Wiatr 5 kt od północno-północny wschód
Widzialność: 7000 m
Przerywane chmury na wysokości 2000 ft
słaby deszcz,

TAF: LOXT 230515Z 2306/2315 VRB03KT 9999 FEW015 BKN025 TEMPO 2306/2307 1500 -RASN FEW005 OVC015 TEMPO 2307/2315 03005KT 7000 -RA BKN020

Obserwacja i prognoza pogody dla ponad 4000 lotnisk (raport METAR i TAF).

Dostępne stacje oznaczono żółtymi i czerwonymi punktami na mapie.

Najedź kursorem aby zobaczyć nazwę stacji.

Kliknij aby zobaczyć obserwacje i prognozy pogody.

Aby zmienić mapę: kliknij na zielony przycisk z czarnym krzyżykiem, aby powiększyć; na zielony przycisk z myślnikiem, aby pomniejszyć; na zielone strzałki, aby przejść do map sąsiednich.


METAR-TAF: